CDT,Max TemperatureF,Mean TemperatureF,Min TemperatureF,Max Dew PointF,MeanDew PointF,Min DewpointF,Max Humidity, Mean Humidity, Min Humidity, Max Sea Level PressureIn, Mean Sea Level PressureIn, Min Sea Level PressureIn, Max VisibilityMiles, Mean VisibilityMiles, Min VisibilityMiles, Max Wind SpeedMPH, Mean Wind SpeedMPH, Max Gust SpeedMPH,PrecipitationIn, CloudCover, Events, WindDirDegrees
2012-10-1,66,52,39,48,43,36,93,71,52,29.94,29.89,29.84,10,10,10,17,4,24,0.00,1,,343
2012-10-2,68,50,33,45,35,32,100,61,26,29.98,29.93,29.86,10,10,1,10,4,,0.00,0,,170
2012-10-3,73,54,35,45,37,32,93,58,25,29.95,29.91,29.87,10,10,10,12,2,,0.03,0,,152
2012-10-4,55,46,37,43,35,27,76,64,46,30.07,29.92,29.78,10,10,10,31,13,40,0.00,5,,232
2012-10-5,41,38,35,30,27,23,75,66,52,30.06,30.04,30.02,10,10,10,25,18,34,0.00,8,Snow,281
2012-10-6,39,36,32,32,25,19,93,69,48,30.22,30.16,30.06,10,10,7,16,11,22,0.00,8,Rain,324
2012-10-7,48,34,19,27,19,16,93,56,27,30.19,30.06,29.90,10,10,10,18,6,28,0.00,1,,218
2012-10-8,53,42,30,39,29,19,76,60,47,29.89,29.73,29.58,10,10,10,20,7,26,0.00,4,Rain,190
2012-10-9,46,40,35,37,32,27,93,75,49,29.90,29.76,29.71,10,10,7,20,8,29,0.01,7,Rain,267
2012-10-10,46,37,28,30,26,19,93,64,37,30.04,29.97,29.89,10,10,10,17,9,28,0.00,6,,263
2012-10-11,46,38,30,32,25,16,87,60,29,30.36,30.07,29.81,10,10,10,20,9,25,0.00,3,Rain,339
2012-10-12,46,32,17,27,18,10,93,58,25,30.43,30.32,30.10,10,10,10,14,4,17,0.00,0,,170
2012-10-13,44,40,37,45,39,18,100,92,34,30.05,29.82,29.70,10,4,0,20,9,28,0.00,8,Fog-Rain,122
2012-10-14,51,42,33,43,37,30,93,80,50,29.84,29.76,29.71,10,10,7,20,8,25,0.00,5,,4
2012-10-15,57,42,28,36,32,28,100,64,36,29.94,29.87,29.78,10,10,7,10,3,,0.00,2,,214
2012-10-16,62,52,42,46,41,36,93,65,52,29.77,29.56,29.41,10,10,10,14,8,18,0.00,4,Rain,154
2012-10-17,59,50,41,52,45,39,93,86,67,29.41,29.27,29.18,10,9,5,20,6,28,0.00,5,Rain,157
2012-10-18,50,44,39,43,38,36,87,77,58,29.37,29.24,29.15,10,10,10,13,4,,0.00,7,,237
2012-10-19,48,40,33,41,37,32,100,82,54,29.71,29.58,29.40,10,9,2,16,4,16,0.03,6,Rain,30
2012-10-20,51,38,26,43,35,27,100,88,58,29.83,29.78,29.71,10,6,0,7,2,,0.00,4,Fog,148
2012-10-21,60,46,33,43,38,32,100,73,42,29.93,29.87,29.82,10,9,3,16,5,20,0.00,2,,119
2012-10-22,55,50,46,45,42,41,87,72,58,29.98,29.95,29.91,10,10,10,14,7,22,0.00,5,Thunderstorm,48
2012-10-23,57,54,50,55,51,43,100,92,76,29.93,29.81,29.74,10,4,0,15,9,20,0.03,8,Fog-Rain-Thunderstorm,121
2012-10-24,59,54,50,57,53,46,100,96,87,29.85,29.78,29.69,10,4,0,16,4,22,0.29,8,Fog-Rain-Thunderstorm,359
2012-10-25,48,40,33,46,35,28,100,91,81,30.06,29.79,29.60,10,7,1,22,14,31,0.37,8,Rain-Snow-Thunderstorm,322
2012-10-26,35,32,30,27,24,21,80,70,56,30.30,30.24,30.07,10,10,10,20,12,30,0.00,6,,269
2012-10-27,39,32,26,28,23,18,93,70,42,30.35,30.30,30.27,10,10,10,13,5,17,0.00,3,,247
2012-10-28,41,31,21,27,22,19,100,72,42,30.35,30.31,30.28,10,10,5,15,2,,0.00,4,,185
2012-10-29,46,35,24,27,22,19,86,67,34,30.35,30.31,30.25,10,10,10,7,2,,0.00,1,,136
2012-10-30,42,33,24,32,24,16,93,69,39,30.25,30.14,30.02,10,10,10,16,7,23,0.00,0,,12
2012-10-31,44,32,21,23,16,9,93,54,23,30.02,29.96,29.89,10,10,10,12,7,10,0.00,1,,325